Owensboro Daviess County Airport Owensboro US
ICAO: KOWB
IATA: OWB
Category: Medium
Scheduled Services: Yes

Elevation: 407 ft
TransAlt. 18000 ft.

Airport Communications:
EVANSVILLE APP/DEP:126.4
CTAF:120.7
GND:121.7
LOUISVILLE RDO:108.6
TWR:120.7
UNICOM:122.95

KOWB Zoom In..

If you have problems with the map follow the link
https://www.worldairports.se/pages/airport.php?
ICAO=KOWB

Runways:

(A) RW 06 length 5000 ft width 100 ft
---- / hdg 56

(B) RW 18 length 8000 ft width 150 ft
---- / hdg 182

(C) RW 24 length 5000 ft width 100 ft
---- / hdg 236

(D) RW 36 length 8000 ft width 150 ft
ILS 111.50 / hdg 2

Location; KOWB
Day. 18 / Time. 23.56 Zulu
* Altimeter: 30.42
* Temperature: 12° c. 53.6°f.
* Wind from: 040° Speed 03 kn.
Dewpoint: 02° c.
Visibility: 10 Statute Miles.
Clouds: Clear (automated report).

KOWB 182356Z 04003KT 10SM CLR 12/02 A3042 RMK AO2 SLP314 T01170022 10156 20117 58006


Wind From 040°
Speed 03 kn.

 
 
jpsmedia.com for Web Design worldairports.se 2018   terms of use